Airport View

Enter AWOS ICAO identifier for current METAR.

ex. KFNL

KPHT 192015Z AUTO VRB03KT 10SM CLR 34/23 A2999 RMK A01

19 Aug 2019 20:31

Frequency: 118.825

Phone: 731-644-0451

Other Area AWOS: KHZD - KCEY - KM25 - KUCY

TAF KHOP 191600Z 1916/2022 VRB06KT 9999 SKC QNH2999INS BECMG 1918/1919 VRB06KT 9999 SCT040 QNH3006INS TEMPO 1920/2001 VRB20G30KT 3200 -TSRA OVC040CB TX35/1921Z TN23/2011Z